^^
Meteo Knjazevac Station Historical Data
Daily Summary for September 16, 2021 Units:  Metric    English   Both
Daily Weekly Monthly Yearly Custom
  High: Low: Average:
Temperature: 13.7 °C 11.5 °C 12.3 °C
Dew Point: 9.7 °C 8.8 °C 9.1 °C
Humidity: 85% 75% 81%
Wind Speed: 8km/h 0km/h 2.9km/h
Wind Gust: 9.7km/h - -
Wind- - West
Pressure: 1019.5 hPa 1019.2 hPa -
Precipitation: 0 mm    
Historical Graphs
 
 
Tabular Data for September 16, 2021
Time Temperature Dew Point Pressure Wind Wind Speed Wind Gust Humidity Rainfall Rate (Hourly) solar Conditions
00:00 13.7 °C 9.3 °C 1019.5 hPa West 1.6 km/h 4.8 km/h 75% 0 mm 0 W/m2
00:10 13.6 °C 9.7 °C 1019.5 hPa WNW 1.6 km/h 8 km/h 77% 0 mm 0 W/m2
00:20 13.4 °C 9.4 °C 1019.5 hPa West 1.6 km/h 3.2 km/h 77% 0 mm 0 W/m2
00:30 13.3 °C 9.6 °C 1019.5 hPa West 1.6 km/h 6.4 km/h 78% 0 mm 0 W/m2
00:40 13.1 °C 9.3 °C 1019.5 hPa WSW 3.2 km/h 3.2 km/h 78% 0 mm 0 W/m2
00:50 12.8 °C 9.1 °C 1019.5 hPa West 3.2 km/h 4.8 km/h 78% 0 mm 0 W/m2
01:00 12.7 °C 9.2 °C 1019.5 hPa WNW 3.2 km/h 6.4 km/h 79% 0 mm 0 W/m2
01:10 12.7 °C 9.2 °C 1019.5 hPa WNW 1.6 km/h 6.4 km/h 79% 0 mm 0 W/m2
01:20 12.6 °C 9 °C 1019.5 hPa WSW 1.6 km/h 3.2 km/h 79% 0 mm 0 W/m2
01:30 12.3 °C 8.8 °C 1019.5 hPa Calm   3.2 km/h 79% 0 mm 0 W/m2
01:40 12.2 °C 8.8 °C 1019.5 hPa NNW 1.6 km/h 3.2 km/h 80% 0 mm 0 W/m2
01:50 12.1 °C 8.8 °C 1019.5 hPa WNW 3.2 km/h 4.8 km/h 80% 0 mm 0 W/m2
02:00 12 °C 8.8 °C 1019.5 hPa West 3.2 km/h 8 km/h 81% 0 mm 0 W/m2
02:10 11.9 °C 9.1 °C 1019.5 hPa West 3.2 km/h 8 km/h 83% 0 mm 0 W/m2
02:20 11.8 °C 9 °C 1019.5 hPa West 8 km/h 9.7 km/h 83% 0 mm 0 W/m2
02:30 11.8 °C 9 °C 1019.5 hPa West 3.2 km/h 9.7 km/h 83% 0 mm 0 W/m2
02:40 11.6 °C 8.8 °C 1019.5 hPa West 3.2 km/h 4.8 km/h 83% 0 mm 0 W/m2
02:50 11.6 °C 9 °C 1019.5 hPa WNW 4.8 km/h 8 km/h 84% 0 mm 0 W/m2
03:00 11.8 °C 9.2 °C 1019.5 hPa West 4.8 km/h 6.4 km/h 84% 0 mm 0 W/m2
03:10 11.8 °C 9 °C 1019.2 hPa Calm   6.4 km/h 83% 0 mm 0 W/m2
03:20 11.6 °C 8.9 °C 1019.5 hPa West 3.2 km/h 6.4 km/h 84% 0 mm 0 W/m2
03:30 11.6 °C 9.2 °C 1019.5 hPa WNW 4.8 km/h 9.7 km/h 85% 0 mm 0 W/m2
03:40 11.6 °C 9.2 °C 1019.5 hPa West 3.2 km/h 8 km/h 85% 0 mm 0 W/m2
03:50 11.5 °C 8.9 °C 1019.5 hPa West 3.2 km/h 6.4 km/h 84% 0 mm 0 W/m2
Knjazevac, Serbia
Compliments of Weather Underground - 2 mb